Weather at Siem Reap International Airport

Public forecast

Using degrees Celsius for public forecast. Weather courtesy of forecast.io.

Current aviation weather report (METAR) for Siem Reap International Airport

Report is more than 6 hours old.

2022/11/14 15:30 (retrieved 2 years ago)

VDSR 141530Z 30004KT 9999 FEW017 27/25 Q1010

Aviation forecast (TAF) for Siem Reap International Airport

Forecast is more than 12 hours old.

2023/02/22 18:00 (retrieved 1 year ago)

TAF VDPP 221700Z 2218/2312 07005KT 9999 SCT017 TAF VDSR 221700Z 2218/2312 11006KT 9999 SCT017